createdAt,value
2022-10-02T06:37:55.134Z,93.37
2022-10-02T06:40:35.684Z,92.20
2022-10-02T06:42:50.865Z,91.38
2022-10-02T06:45:01.501Z,90.76
2022-10-02T06:47:19.708Z,90.03
2022-10-02T06:49:51.703Z,89.78
2022-10-02T06:52:10.246Z,89.45
2022-10-02T06:54:43.003Z,88.84
2022-10-02T06:56:59.025Z,88.66
2022-10-02T06:59:17.464Z,88.36
2022-10-02T07:01:31.580Z,88.33
2022-10-02T07:03:55.716Z,88.09
2022-10-02T07:06:15.077Z,87.92
2022-10-02T07:08:30.249Z,87.68
2022-10-02T07:10:43.643Z,87.42
2022-10-02T07:13:21.080Z,87.46
2022-10-02T07:15:50.617Z,87.16
2022-10-02T07:18:07.143Z,86.96
2022-10-02T07:20:26.921Z,86.75
2022-10-02T07:22:45.598Z,86.85
2022-10-02T07:25:10.266Z,86.64
2022-10-02T07:27:20.279Z,86.64
2022-10-02T07:29:37.662Z,86.24
2022-10-02T07:31:52.495Z,86.52
2022-10-02T07:34:08.009Z,86.30
2022-10-02T07:36:14.384Z,86.01
2022-10-02T07:38:46.162Z,85.96
2022-10-02T07:41:00.196Z,86.04
2022-10-02T07:43:17.403Z,85.98
2022-10-02T07:45:28.713Z,85.99
2022-10-02T07:47:56.253Z,85.91
2022-10-02T07:50:09.383Z,85.58
2022-10-02T07:52:25.643Z,85.61
2022-10-02T07:54:59.977Z,85.48
2022-10-02T07:57:11.878Z,85.25
2022-10-02T07:59:18.909Z,85.04
2022-10-02T08:01:25.964Z,85.19
2022-10-02T08:03:33.345Z,85.07
2022-10-02T08:05:41.585Z,85.06
2022-10-02T08:07:50.781Z,85.03
2022-10-02T08:09:55.537Z,84.95
2022-10-02T08:12:04.340Z,84.70
2022-10-02T08:14:12.053Z,84.72
2022-10-02T08:16:20.806Z,84.70
2022-10-02T08:18:34.558Z,84.63
2022-10-02T08:20:43.025Z,84.74
2022-10-02T08:22:50.895Z,84.61
2022-10-02T08:24:58.279Z,84.79
2022-10-02T08:27:08.350Z,84.63
2022-10-02T08:29:17.962Z,84.52
2022-10-02T08:31:24.011Z,84.41
2022-10-02T08:33:26.926Z,84.40
2022-10-02T08:35:41.212Z,84.35
2022-10-02T08:38:04.984Z,84.33
2022-10-02T08:40:53.593Z,84.34
2022-10-02T08:43:39.013Z,84.18
2022-10-02T08:46:23.530Z,84.17
2022-10-02T08:48:49.583Z,83.77
2022-10-02T08:51:30.218Z,83.87
2022-10-02T08:54:17.151Z,83.76
2022-10-02T08:56:39.630Z,83.78
2022-10-02T08:59:05.388Z,83.72
2022-10-02T09:01:21.854Z,83.71
2022-10-02T09:04:12.975Z,83.37
2022-10-02T09:06:53.915Z,83.20
2022-10-02T09:09:35.291Z,83.24
2022-10-02T09:12:21.532Z,83.00
2022-10-02T09:14:48.313Z,82.90
2022-10-02T09:17:10.522Z,82.97
2022-10-02T09:19:40.682Z,83.00
2022-10-02T09:21:54.731Z,82.88
2022-10-02T09:24:35.560Z,82.83
2022-10-02T09:26:58.285Z,82.83
2022-10-02T09:29:21.922Z,82.76
2022-10-02T09:31:43.158Z,82.45
2022-10-02T09:34:15.807Z,82.47
2022-10-02T09:37:02.110Z,82.43
2022-10-02T09:39:55.935Z,82.44
2022-10-02T09:42:36.331Z,82.25
2022-10-02T09:45:18.221Z,82.26
2022-10-02T09:48:01.466Z,82.03
2022-10-02T09:50:36.830Z,82.18
2022-10-02T09:53:11.557Z,81.72
2022-10-02T09:55:36.709Z,81.74
2022-10-02T09:58:14.812Z,81.51
2022-10-02T10:00:26.476Z,81.88
2022-10-02T10:02:49.591Z,81.44
2022-10-02T10:05:10.740Z,81.29
2022-10-02T10:07:59.111Z,81.30
2022-10-02T10:10:34.383Z,81.44
2022-10-02T10:13:12.312Z,81.57
2022-10-02T10:15:40.483Z,81.34
2022-10-02T10:18:12.100Z,81.33
2022-10-02T10:21:07.212Z,81.23
2022-10-02T10:23:38.189Z,81.33
2022-10-02T10:26:16.589Z,81.06
2022-10-02T10:29:03.966Z,81.21
2022-10-02T10:31:54.237Z,81.23
2022-10-02T10:34:29.085Z,81.10
2022-10-02T10:37:08.761Z,81.04
2022-10-02T10:39:39.521Z,80.80
2022-10-02T10:42:20.928Z,80.68
2022-10-02T10:45:00.295Z,80.87
2022-10-02T10:47:43.632Z,80.76
2022-10-02T10:50:20.618Z,80.88
2022-10-02T10:52:42.676Z,80.74
2022-10-02T10:54:55.817Z,80.77
2022-10-02T10:57:04.306Z,80.82
2022-10-02T10:59:43.235Z,80.75
2022-10-02T11:02:06.564Z,80.26
2022-10-02T11:04:39.237Z,80.37
2022-10-02T11:07:02.706Z,80.34
2022-10-02T11:09:34.319Z,80.16
2022-10-02T11:11:44.855Z,80.11
2022-10-02T11:14:05.579Z,79.79
2022-10-02T11:16:44.804Z,80.14
2022-10-02T11:19:10.912Z,79.76
2022-10-02T11:21:38.381Z,79.81
2022-10-02T11:24:08.862Z,79.64
2022-10-02T11:26:32.318Z,79.75
2022-10-02T11:28:56.193Z,79.30
2022-10-02T11:31:16.657Z,79.69
2022-10-02T11:33:34.967Z,79.42
2022-10-02T11:36:16.392Z,79.14
2022-10-02T11:38:43.466Z,79.03
2022-10-02T11:40:59.923Z,79.33
2022-10-02T11:43:27.535Z,78.88
2022-10-02T11:46:00.191Z,78.98
2022-10-02T11:48:41.282Z,78.81
2022-10-02T11:51:01.934Z,79.00
2022-10-02T11:53:32.057Z,78.91
2022-10-02T11:55:50.414Z,78.82
2022-10-02T11:58:06.020Z,78.78
2022-10-02T12:00:34.369Z,78.62
2022-10-02T12:02:42.909Z,78.66
2022-10-02T12:05:04.430Z,78.56
2022-10-02T12:07:21.023Z,78.35
2022-10-02T12:09:36.912Z,78.27
2022-10-02T12:11:48.351Z,78.16
2022-10-02T12:14:04.488Z,78.20
2022-10-02T12:16:18.143Z,77.81
2022-10-02T12:18:42.816Z,77.58
2022-10-02T12:21:16.184Z,77.90
2022-10-02T12:23:47.221Z,77.46
2022-10-02T12:26:16.384Z,77.47
2022-10-02T12:28:27.433Z,77.53
2022-10-02T12:30:40.699Z,77.58
2022-10-02T12:33:27.213Z,77.39
2022-10-02T12:35:51.793Z,77.16
2022-10-02T12:38:06.267Z,76.89
2022-10-02T12:40:21.273Z,77.08
2022-10-02T12:43:00.281Z,76.97
2022-10-02T12:45:28.188Z,76.86
2022-10-02T12:47:50.643Z,76.78
2022-10-02T12:50:11.208Z,76.84
2022-10-02T12:52:40.676Z,76.33
2022-10-02T12:55:13.461Z,76.62
2022-10-02T12:57:53.082Z,76.40
2022-10-02T13:00:04.490Z,76.37
2022-10-02T13:03:00.485Z,76.20
2022-10-02T13:05:47.972Z,76.00
2022-10-02T13:08:19.350Z,76.34
2022-10-02T13:10:24.688Z,76.50
2022-10-02T13:12:54.109Z,75.97
2022-10-02T13:15:17.651Z,76.00
2022-10-02T13:17:32.432Z,75.78
2022-10-02T13:19:47.890Z,76.22
2022-10-02T13:21:59.470Z,76.12
2022-10-02T13:24:17.348Z,75.67
2022-10-02T13:26:34.156Z,75.88
2022-10-02T13:28:50.200Z,75.48
2022-10-02T13:31:04.288Z,75.34
2022-10-02T13:33:20.344Z,75.07
2022-10-02T13:36:04.665Z,75.38
2022-10-02T13:38:23.238Z,75.15
2022-10-02T13:40:31.031Z,74.97
2022-10-02T13:42:48.011Z,74.94
2022-10-02T13:45:00.366Z,74.92
2022-10-02T13:47:28.434Z,74.50
2022-10-02T13:49:46.763Z,74.16
2022-10-02T13:51:57.575Z,74.19
2022-10-02T13:54:23.620Z,74.37
2022-10-02T13:56:43.881Z,74.14
2022-10-02T13:59:14.788Z,73.94
2022-10-02T14:01:30.046Z,73.97
2022-10-02T14:03:50.008Z,73.40
2022-10-02T14:06:01.221Z,73.43
2022-10-02T14:08:44.296Z,73.30
2022-10-02T14:11:01.555Z,72.71
2022-10-02T14:13:21.048Z,72.60
2022-10-02T14:15:38.200Z,72.79
2022-10-02T14:17:53.779Z,72.46
2022-10-02T14:20:15.739Z,72.06
2022-10-02T14:22:34.839Z,71.71
2022-10-02T14:25:04.376Z,71.89
2022-10-02T14:27:19.192Z,71.23
2022-10-02T14:29:37.125Z,71.01
2022-10-02T14:32:05.865Z,70.86
2022-10-02T14:34:26.177Z,70.12
2022-10-02T14:36:38.552Z,70.29
2022-10-02T14:39:01.117Z,69.67
2022-10-02T14:41:18.889Z,69.45
2022-10-02T14:43:42.317Z,69.10
2022-10-02T14:46:08.691Z,68.78
2022-10-02T14:48:27.049Z,68.79
2022-10-02T14:50:44.838Z,68.59
2022-10-02T14:53:04.571Z,67.97
2022-10-02T14:55:28.156Z,68.08
2022-10-02T14:57:53.046Z,67.90
2022-10-02T15:00:24.632Z,67.29
2022-10-02T15:02:50.290Z,67.38
2022-10-02T15:05:07.003Z,66.82
2022-10-02T15:07:13.182Z,66.80
2022-10-02T15:09:21.268Z,66.43
2022-10-02T15:11:47.354Z,66.19
2022-10-02T15:13:56.815Z,66.39
2022-10-02T15:16:26.848Z,65.72
2022-10-02T15:18:40.186Z,65.67
2022-10-02T15:20:59.434Z,65.76
2022-10-02T15:23:04.331Z,65.28
2022-10-02T15:25:18.299Z,64.68
2022-10-02T15:27:24.917Z,64.67
2022-10-02T15:29:40.962Z,64.77
2022-10-02T15:32:02.376Z,64.36
2022-10-02T15:34:19.814Z,63.85
2022-10-02T15:36:50.423Z,63.92
2022-10-02T15:39:19.686Z,64.08
2022-10-02T15:41:48.129Z,63.55
2022-10-02T15:44:03.193Z,63.46
2022-10-02T15:46:15.956Z,63.51
2022-10-02T15:49:06.124Z,63.11
2022-10-02T15:51:21.568Z,62.78
2022-10-02T15:53:37.425Z,62.71
2022-10-02T15:55:44.638Z,62.71
2022-10-02T15:58:08.521Z,62.35
2022-10-02T16:00:15.116Z,61.88
2022-10-02T16:02:33.043Z,62.02
2022-10-02T16:04:47.068Z,61.87
2022-10-02T16:07:31.959Z,61.54
2022-10-02T16:09:50.545Z,61.32
2022-10-02T16:12:11.366Z,61.37
2022-10-02T16:14:19.753Z,61.11
2022-10-02T16:16:56.145Z,61.27
2022-10-02T16:19:08.338Z,60.99
2022-10-02T16:21:27.200Z,61.28
2022-10-02T16:23:57.598Z,61.04
2022-10-02T16:26:15.504Z,60.92
2022-10-02T16:28:34.303Z,60.60
2022-10-02T16:30:59.199Z,60.54
2022-10-02T16:33:20.986Z,60.47
2022-10-02T16:36:03.561Z,60.21
2022-10-02T16:38:17.936Z,60.29
2022-10-02T16:40:28.909Z,60.59
2022-10-02T16:42:45.255Z,60.39
2022-10-02T16:45:02.810Z,59.91
2022-10-02T16:47:14.894Z,60.30
2022-10-02T16:49:25.780Z,60.38
2022-10-02T16:51:45.010Z,60.15
2022-10-02T16:53:54.496Z,60.42
2022-10-02T16:56:07.072Z,60.35
2022-10-02T16:58:19.328Z,59.96
2022-10-02T17:00:26.720Z,60.35
2022-10-02T17:02:43.406Z,60.29
2022-10-02T17:04:59.266Z,60.34
2022-10-02T17:07:07.047Z,60.22
2022-10-02T17:09:18.581Z,60.59
2022-10-02T17:11:26.255Z,60.38
2022-10-02T17:13:35.738Z,60.55
2022-10-02T17:15:46.238Z,60.46
2022-10-02T17:18:12.373Z,60.23
2022-10-02T17:20:20.450Z,60.39
2022-10-02T17:22:34.234Z,60.23
2022-10-02T17:24:43.594Z,60.66
2022-10-02T17:26:52.619Z,60.67
2022-10-02T17:29:02.819Z,60.44
2022-10-02T17:31:36.629Z,60.80
2022-10-02T17:33:48.036Z,60.42
2022-10-02T17:35:58.004Z,60.83
2022-10-02T17:38:25.583Z,61.01
2022-10-02T17:40:37.051Z,61.05
2022-10-02T17:42:48.836Z,61.13
2022-10-02T17:45:00.133Z,60.69
2022-10-02T17:47:36.004Z,60.94
2022-10-02T17:49:51.727Z,61.28
2022-10-02T17:52:23.835Z,61.30
2022-10-02T17:55:00.130Z,61.19
2022-10-02T17:57:17.416Z,61.43
2022-10-02T18:00:04.493Z,61.06
2022-10-02T18:02:22.132Z,61.40
2022-10-02T18:04:33.224Z,61.34
2022-10-02T18:06:47.154Z,61.50
2022-10-02T18:09:23.020Z,61.29
2022-10-02T18:11:42.496Z,61.33
2022-10-02T18:13:59.882Z,61.58
2022-10-02T18:16:22.177Z,61.56
2022-10-02T18:18:33.601Z,61.63
2022-10-02T18:20:44.483Z,61.74
2022-10-02T18:23:08.511Z,61.48
2022-10-02T18:25:24.241Z,61.54
2022-10-02T18:28:04.286Z,61.85
2022-10-02T18:30:15.962Z,61.65
2022-10-02T18:32:44.654Z,61.53
2022-10-02T18:35:14.889Z,61.71
2022-10-02T18:37:39.266Z,61.37
2022-10-02T18:40:01.357Z,61.51
2022-10-02T18:42:29.833Z,61.88
2022-10-02T18:44:49.844Z,61.88
2022-10-02T18:47:04.265Z,61.71
2022-10-02T18:49:29.301Z,61.58
2022-10-02T18:51:53.572Z,61.57
2022-10-02T18:54:10.614Z,61.87
2022-10-02T18:56:40.122Z,61.62
2022-10-02T18:58:58.439Z,61.54
2022-10-02T19:01:10.739Z,61.50
2022-10-02T19:03:25.421Z,61.51
2022-10-02T19:05:32.948Z,61.60
2022-10-02T19:07:40.907Z,61.68
2022-10-02T19:09:44.276Z,61.79
2022-10-02T19:11:56.190Z,61.60
2022-10-02T19:14:03.192Z,61.71
2022-10-02T19:16:19.293Z,61.73
2022-10-02T19:18:24.543Z,61.79
2022-10-02T19:20:37.231Z,61.98
2022-10-02T19:22:41.898Z,61.51
2022-10-02T19:24:47.143Z,61.86
2022-10-02T19:26:57.037Z,61.76
2022-10-02T19:29:03.860Z,61.66
2022-10-02T19:31:11.262Z,61.54
2022-10-02T19:33:22.756Z,61.54
2022-10-02T19:35:29.396Z,61.52
2022-10-02T19:37:33.232Z,61.22
2022-10-02T19:39:39.948Z,61.29
2022-10-02T19:41:44.759Z,61.53
2022-10-02T19:43:56.426Z,61.13
2022-10-02T19:46:04.025Z,61.37
2022-10-02T19:48:10.231Z,61.30
2022-10-02T19:50:21.896Z,61.11
2022-10-02T19:52:35.871Z,61.37
2022-10-02T19:54:40.765Z,61.05
2022-10-02T19:56:45.514Z,61.22
2022-10-02T19:58:51.087Z,60.90
2022-10-02T20:00:56.238Z,61.29
2022-10-02T20:03:01.630Z,60.90
2022-10-02T20:05:08.168Z,61.20
2022-10-02T20:07:17.611Z,61.16
2022-10-02T20:09:25.904Z,61.07
2022-10-02T20:11:36.248Z,60.93
2022-10-02T20:13:45.513Z,61.23
2022-10-02T20:16:12.298Z,60.80
2022-10-02T20:18:16.197Z,60.84
2022-10-02T20:20:20.609Z,60.90
2022-10-02T20:22:31.684Z,60.76
2022-10-02T20:24:46.235Z,60.88
2022-10-02T20:26:52.788Z,60.65
2022-10-02T20:29:00.202Z,60.78
2022-10-02T20:31:07.987Z,60.62
2022-10-02T20:33:19.131Z,60.46
2022-10-02T20:35:29.185Z,60.54
2022-10-02T20:37:34.798Z,60.74
2022-10-02T20:39:42.893Z,60.57
2022-10-02T20:41:55.684Z,60.14
2022-10-02T20:44:06.127Z,60.64
2022-10-02T20:46:30.509Z,60.44
2022-10-02T20:49:08.077Z,60.46
2022-10-02T20:51:16.854Z,60.51
2022-10-02T20:53:57.510Z,60.16
2022-10-02T20:56:07.658Z,60.33
